createdAt,value
2023-04-14T00:01:17.005Z,3.85
2023-04-14T00:02:37.706Z,3.27
2023-04-14T00:03:58.847Z,3.63
2023-04-14T00:05:20.104Z,4.00
2023-04-14T00:06:40.579Z,3.35
2023-04-14T00:08:01.527Z,3.03
2023-04-14T00:09:22.088Z,4.72
2023-04-14T00:10:42.709Z,3.60
2023-04-14T00:12:03.386Z,3.05
2023-04-14T00:13:23.962Z,3.92
2023-04-14T00:14:46.346Z,3.40
2023-04-14T00:16:07.614Z,4.45
2023-04-14T00:17:28.050Z,3.22
2023-04-14T00:18:48.574Z,3.92
2023-04-14T00:20:10.148Z,3.08
2023-04-14T00:21:30.878Z,3.08
2023-04-14T00:22:51.685Z,3.33
2023-04-14T00:24:12.442Z,3.70
2023-04-14T00:25:33.240Z,3.47
2023-04-14T00:26:53.786Z,3.77
2023-04-14T00:28:14.412Z,3.53
2023-04-14T00:29:35.405Z,3.25
2023-04-14T00:30:57.714Z,3.03
2023-04-14T00:32:18.286Z,3.00
2023-04-14T00:33:38.853Z,3.47
2023-04-14T00:34:59.295Z,2.90
2023-04-14T00:36:19.663Z,3.27
2023-04-14T00:37:40.468Z,3.23
2023-04-14T00:39:02.968Z,3.35
2023-04-14T00:40:24.589Z,4.15
2023-04-14T00:41:48.575Z,2.92
2023-04-14T00:43:09.701Z,3.38
2023-04-14T00:45:55.466Z,3.65
2023-04-14T00:47:21.090Z,3.72
2023-04-14T00:48:41.762Z,3.58
2023-04-14T00:50:09.342Z,4.00
2023-04-14T00:51:31.473Z,3.80
2023-04-14T00:52:53.025Z,3.42
2023-04-14T00:54:17.112Z,3.42
2023-04-14T00:55:44.389Z,3.70
2023-04-14T00:57:08.690Z,3.80
2023-04-14T00:58:30.303Z,3.63
2023-04-14T00:59:52.472Z,3.45
2023-04-14T01:01:13.412Z,3.60
2023-04-14T01:02:36.142Z,3.13
2023-04-14T01:03:52.605Z,2.90
2023-04-14T01:05:13.212Z,3.33
2023-04-14T01:06:33.905Z,3.03
2023-04-14T01:07:54.722Z,4.23
2023-04-14T01:09:15.721Z,3.92
2023-04-14T01:10:43.419Z,3.20
2023-04-14T01:12:12.394Z,3.75
2023-04-14T01:13:39.056Z,3.53
2023-04-14T01:15:07.620Z,3.63
2023-04-14T01:16:30.511Z,3.78
2023-04-14T01:17:57.092Z,3.20
2023-04-14T01:19:39.545Z,3.47
2023-04-14T01:21:05.754Z,3.47
2023-04-14T01:22:29.949Z,3.28
2023-04-14T01:24:03.997Z,3.13
2023-04-14T01:25:52.824Z,4.40
2023-04-14T01:27:24.721Z,3.75
2023-04-14T01:30:37.527Z,3.85
2023-04-14T01:32:02.235Z,4.32
2023-04-14T01:33:24.269Z,4.35
2023-04-14T01:34:50.749Z,3.75
2023-04-14T01:36:14.299Z,3.97
2023-04-14T01:37:36.880Z,4.15
2023-04-14T01:38:58.265Z,3.85
2023-04-14T01:40:20.180Z,3.38
2023-04-14T01:41:45.070Z,3.75
2023-04-14T01:43:09.217Z,4.55
2023-04-14T01:44:30.193Z,4.35
2023-04-14T01:45:53.568Z,3.38
2023-04-14T01:47:17.813Z,3.10
2023-04-14T01:48:40.697Z,3.85
2023-04-14T01:50:03.302Z,3.22
2023-04-14T01:51:24.408Z,3.25
2023-04-14T01:54:08.238Z,3.90
2023-04-14T01:55:29.047Z,4.75
2023-04-14T01:56:51.151Z,4.97
2023-04-14T01:58:13.016Z,3.60
2023-04-14T01:59:34.738Z,3.90
2023-04-14T02:00:56.050Z,3.70
2023-04-14T02:02:20.097Z,4.18
2023-04-14T02:03:41.605Z,3.83
2023-04-14T02:05:03.519Z,3.92
2023-04-14T02:06:24.804Z,5.25
2023-04-14T02:07:46.450Z,3.88
2023-04-14T02:09:07.658Z,4.45
2023-04-14T02:10:29.117Z,3.78
2023-04-14T02:11:50.174Z,3.35
2023-04-14T02:13:11.610Z,3.63
2023-04-14T02:14:33.783Z,4.55
2023-04-14T02:15:55.103Z,3.63
2023-04-14T02:17:18.408Z,3.88
2023-04-14T02:18:40.768Z,3.90
2023-04-14T02:20:02.227Z,3.58
2023-04-14T02:21:24.814Z,5.30
2023-04-14T02:22:45.504Z,3.67
2023-04-14T02:24:07.093Z,4.72
2023-04-14T02:25:32.488Z,3.15
2023-04-14T02:26:55.989Z,3.60
2023-04-14T02:28:20.731Z,3.95
2023-04-14T02:29:44.224Z,4.05
2023-04-14T02:31:07.807Z,3.40
2023-04-14T02:32:30.415Z,3.92
2023-04-14T02:33:53.892Z,4.75
2023-04-14T02:35:17.242Z,4.22
2023-04-14T02:36:40.254Z,4.28
2023-04-14T02:38:07.294Z,3.85
2023-04-14T02:39:30.330Z,3.95
2023-04-14T02:40:51.083Z,3.47
2023-04-14T02:42:13.836Z,4.10
2023-04-14T02:43:39.059Z,3.85
2023-04-14T02:45:03.469Z,3.63
2023-04-14T02:46:26.732Z,4.00
2023-04-14T02:47:53.123Z,4.00
2023-04-14T02:49:15.088Z,3.65
2023-04-14T02:50:36.363Z,4.18
2023-04-14T02:51:57.811Z,4.43
2023-04-14T02:53:21.185Z,3.65
2023-04-14T02:54:42.640Z,4.30
2023-04-14T02:56:03.617Z,3.97
2023-04-14T02:57:25.819Z,3.60
2023-04-14T02:58:47.038Z,3.40
2023-04-14T03:00:09.046Z,3.47
2023-04-14T03:02:53.729Z,3.40
2023-04-14T03:04:15.693Z,3.63
2023-04-14T03:05:37.393Z,3.88
2023-04-14T03:06:59.340Z,3.95
2023-04-14T03:08:20.617Z,3.95
2023-04-14T03:11:02.840Z,3.33
2023-04-14T03:12:24.092Z,3.92
2023-04-14T03:13:45.846Z,3.65
2023-04-14T03:15:08.080Z,4.63
2023-04-14T03:16:29.175Z,4.38
2023-04-14T03:17:51.927Z,4.05
2023-04-14T03:19:12.561Z,4.35
2023-04-14T03:20:33.512Z,4.65
2023-04-14T03:21:54.960Z,4.88
2023-04-14T03:24:36.719Z,4.35
2023-04-14T03:25:57.819Z,4.60
2023-04-14T03:27:20.760Z,4.82
2023-04-14T03:28:42.066Z,4.72
2023-04-14T03:30:05.713Z,5.15
2023-04-14T03:31:31.222Z,4.85
2023-04-14T03:32:53.901Z,5.55
2023-04-14T03:34:15.619Z,4.97
2023-04-14T03:35:36.875Z,5.90
2023-04-14T03:36:58.686Z,5.50
2023-04-14T03:39:42.955Z,5.38
2023-04-14T03:41:03.858Z,5.05
2023-04-14T03:42:25.071Z,6.10
2023-04-14T03:43:47.307Z,5.10
2023-04-14T03:45:09.365Z,6.40
2023-04-14T03:46:29.783Z,5.55
2023-04-14T03:47:53.026Z,5.55
2023-04-14T03:49:14.998Z,5.97
2023-04-14T03:51:58.536Z,5.70
2023-04-14T03:53:20.059Z,7.05
2023-04-14T03:54:42.383Z,6.97
2023-04-14T03:56:03.623Z,6.28
2023-04-14T03:57:25.943Z,6.15
2023-04-14T03:58:46.779Z,6.70
2023-04-14T04:00:09.113Z,6.97
2023-04-14T04:01:31.031Z,7.25
2023-04-14T04:02:53.949Z,7.18
2023-04-14T04:04:14.834Z,7.30
2023-04-14T04:05:37.382Z,6.70
2023-04-14T04:06:59.114Z,7.47
2023-04-14T04:08:22.888Z,6.57
2023-04-14T04:09:43.593Z,7.65
2023-04-14T04:11:06.266Z,7.93
2023-04-14T04:12:27.886Z,7.78
2023-04-14T04:13:49.529Z,7.95
2023-04-14T04:15:10.550Z,8.05
2023-04-14T04:16:31.484Z,8.60
2023-04-14T04:17:54.187Z,8.07
2023-04-14T04:19:15.375Z,8.68
2023-04-14T04:20:37.088Z,8.73
2023-04-14T04:21:58.037Z,9.18
2023-04-14T04:23:19.275Z,8.73
2023-04-14T04:24:40.406Z,9.57
2023-04-14T04:26:01.583Z,8.15
2023-04-14T04:27:28.140Z,7.93
2023-04-14T04:28:49.234Z,9.48
2023-04-14T04:30:10.812Z,9.40
2023-04-14T04:31:31.847Z,9.23
2023-04-14T04:32:54.243Z,9.38
2023-04-14T04:34:15.993Z,9.15
2023-04-14T04:36:56.538Z,10.52
2023-04-14T04:38:17.213Z,10.57
2023-04-14T04:39:37.923Z,9.55
2023-04-14T04:40:58.915Z,9.95
2023-04-14T04:42:19.400Z,9.90
2023-04-14T04:43:40.451Z,9.25
2023-04-14T04:45:00.961Z,9.73
2023-04-14T04:46:43.019Z,10.70
2023-04-14T04:48:05.948Z,10.30
2023-04-14T04:49:26.900Z,10.27
2023-04-14T04:50:47.808Z,10.95
2023-04-14T04:52:08.698Z,10.27
2023-04-14T04:53:29.545Z,10.55
2023-04-14T04:54:50.432Z,10.68
2023-04-14T04:56:10.998Z,10.98
2023-04-14T04:57:31.624Z,11.85
2023-04-14T04:58:52.395Z,11.52
2023-04-14T05:00:13.616Z,11.63
2023-04-14T05:01:34.376Z,11.55
2023-04-14T05:02:55.131Z,11.32
2023-04-14T05:04:17.274Z,10.70
2023-04-14T05:05:38.050Z,11.10
2023-04-14T05:06:58.952Z,11.38
2023-04-14T05:08:19.559Z,12.48
2023-04-14T05:09:40.415Z,11.18
2023-04-14T05:11:00.924Z,11.87
2023-04-14T05:12:21.784Z,12.30
2023-04-14T05:13:42.628Z,12.18
2023-04-14T05:15:03.600Z,12.02
2023-04-14T05:16:24.233Z,11.88
2023-04-14T05:17:44.722Z,11.18
2023-04-14T05:19:05.522Z,12.77
2023-04-14T05:20:27.823Z,13.52
2023-04-14T05:21:48.495Z,12.38
2023-04-14T05:23:09.380Z,13.18
2023-04-14T05:24:30.065Z,13.38
2023-04-14T05:25:50.838Z,12.32
2023-04-14T05:27:14.525Z,12.95
2023-04-14T05:28:35.215Z,15.02
2023-04-14T05:29:55.888Z,14.57
2023-04-14T05:31:16.764Z,14.65
2023-04-14T05:32:37.458Z,13.43
2023-04-14T05:33:58.103Z,15.17
2023-04-14T05:35:19.230Z,13.18
2023-04-14T05:36:41.258Z,12.52
2023-04-14T05:38:01.744Z,12.45
2023-04-14T05:39:22.454Z,13.85
2023-04-14T05:40:43.259Z,13.25
2023-04-14T05:42:04.385Z,13.23
2023-04-14T05:43:24.905Z,13.43
2023-04-14T05:44:46.244Z,11.90
2023-04-14T05:46:09.150Z,13.55
2023-04-14T05:47:29.798Z,13.15
2023-04-14T05:48:50.559Z,12.73
2023-04-14T05:50:11.912Z,13.80
2023-04-14T05:51:32.711Z,13.18
2023-04-14T05:52:55.326Z,12.90
2023-04-14T05:54:16.283Z,13.80
2023-04-14T05:55:37.212Z,13.20
2023-04-14T05:56:57.819Z,13.50
2023-04-14T05:58:18.536Z,13.25
2023-04-14T05:59:39.047Z,14.32
2023-04-14T06:00:59.786Z,13.90
2023-04-14T06:02:20.438Z,13.88
2023-04-14T06:03:41.054Z,13.43
2023-04-14T06:05:02.019Z,13.38
2023-04-14T06:06:22.580Z,13.27
2023-04-14T06:07:43.492Z,13.73
2023-04-14T06:09:05.570Z,13.95
2023-04-14T06:10:26.185Z,11.82
2023-04-14T06:11:46.608Z,13.48
2023-04-14T06:13:07.496Z,12.13
2023-04-14T06:14:28.356Z,12.93
2023-04-14T06:15:49.261Z,11.48
2023-04-14T06:17:09.606Z,12.02
2023-04-14T06:18:29.920Z,11.77
2023-04-14T06:19:50.571Z,11.63
2023-04-14T06:21:12.141Z,11.50
2023-04-14T06:22:32.599Z,11.65
2023-04-14T06:23:53.495Z,11.23
2023-04-14T06:25:15.685Z,11.97
2023-04-14T06:26:36.321Z,11.52
2023-04-14T06:27:56.871Z,11.07
2023-04-14T06:29:17.448Z,12.50
2023-04-14T06:30:38.236Z,11.57
2023-04-14T06:31:59.108Z,11.77
2023-04-14T06:33:19.862Z,10.90
2023-04-14T06:34:40.393Z,11.68
2023-04-14T06:36:02.161Z,10.95
2023-04-14T06:37:22.941Z,11.40
2023-04-14T06:38:43.728Z,10.35
2023-04-14T06:40:05.167Z,10.90
2023-04-14T06:41:27.802Z,9.40
2023-04-14T06:42:48.799Z,10.35
2023-04-14T06:44:09.654Z,9.65
2023-04-14T06:45:30.396Z,9.00
2023-04-14T06:46:51.198Z,9.25
2023-04-14T06:48:12.132Z,10.27
2023-04-14T06:49:33.189Z,9.32
2023-04-14T06:50:54.752Z,8.57
2023-04-14T06:52:15.220Z,9.65
2023-04-14T06:53:35.794Z,8.88
2023-04-14T06:54:56.336Z,8.32
2023-04-14T06:56:16.915Z,8.10
2023-04-14T06:57:38.964Z,8.80
2023-04-14T06:58:59.410Z,8.30
2023-04-14T07:00:20.734Z,7.82
2023-04-14T07:01:41.317Z,7.47
2023-04-14T07:03:02.437Z,7.15
2023-04-14T07:04:23.624Z,7.65
2023-04-14T07:05:44.343Z,7.30
2023-04-14T07:07:05.196Z,6.80
2023-04-14T07:08:25.810Z,7.70
2023-04-14T07:09:46.515Z,6.70
2023-04-14T07:11:08.941Z,7.40
2023-04-14T07:12:29.519Z,6.53
2023-04-14T07:13:51.455Z,6.68
2023-04-14T07:15:12.076Z,6.75
2023-04-14T07:16:32.748Z,5.68
2023-04-14T07:17:53.548Z,6.20
2023-04-14T07:19:14.190Z,6.63
2023-04-14T07:20:35.081Z,6.50
2023-04-14T07:21:56.009Z,6.25
2023-04-14T07:23:16.422Z,5.70
2023-04-14T07:24:38.096Z,5.93
2023-04-14T07:26:00.141Z,5.53
2023-04-14T07:27:20.969Z,5.78
2023-04-14T07:28:41.713Z,4.82
2023-04-14T07:30:04.081Z,5.33
2023-04-14T07:31:24.874Z,5.28
2023-04-14T07:32:45.926Z,4.60
2023-04-14T07:34:06.696Z,4.35
2023-04-14T07:35:27.619Z,5.53
2023-04-14T07:36:48.461Z,5.13
2023-04-14T07:38:09.020Z,4.30
2023-04-14T07:39:30.370Z,5.50
2023-04-14T07:40:51.376Z,4.90
2023-04-14T07:42:13.044Z,5.28
2023-04-14T07:43:33.982Z,4.20
2023-04-14T07:44:54.645Z,4.70
2023-04-14T07:46:16.637Z,4.72
2023-04-14T07:47:37.529Z,4.45
2023-04-14T07:48:58.358Z,4.82
2023-04-14T07:50:19.919Z,4.20
2023-04-14T07:51:40.759Z,4.57
2023-04-14T07:53:01.368Z,5.17
2023-04-14T07:54:22.261Z,4.35
2023-04-14T07:55:42.861Z,4.05
2023-04-14T07:57:03.676Z,4.57
2023-04-14T07:58:26.696Z,3.63
2023-04-14T07:59:49.062Z,3.50
2023-04-14T08:01:09.858Z,4.13
2023-04-14T08:02:31.941Z,3.20
2023-04-14T08:03:53.031Z,4.28
2023-04-14T08:05:13.532Z,3.80
2023-04-14T08:06:34.214Z,3.70
2023-04-14T08:07:55.112Z,3.50
2023-04-14T08:09:15.826Z,3.45
2023-04-14T08:10:37.902Z,3.58
2023-04-14T08:11:58.393Z,2.90
2023-04-14T08:13:18.939Z,4.28
2023-04-14T08:14:39.733Z,2.97
2023-04-14T08:16:00.727Z,2.70
2023-04-14T08:17:21.466Z,2.70
2023-04-14T08:18:43.150Z,3.00
2023-04-14T08:20:04.139Z,3.00
2023-04-14T08:21:24.584Z,2.88
2023-04-14T08:22:45.647Z,2.90
2023-04-14T08:24:06.781Z,2.90
2023-04-14T08:25:27.667Z,3.03
2023-04-14T08:26:48.204Z,3.15
2023-04-14T08:28:08.885Z,4.15
2023-04-14T08:29:29.581Z,2.92
2023-04-14T08:30:50.407Z,4.00
2023-04-14T08:32:11.128Z,3.22
2023-04-14T08:33:31.788Z,4.10
2023-04-14T08:35:39.046Z,3.88
2023-04-14T08:36:34.248Z,3.22
2023-04-14T08:37:54.813Z,3.30
2023-04-14T08:39:15.474Z,3.17
2023-04-14T08:40:37.547Z,3.45
2023-04-14T08:41:58.286Z,3.90
2023-04-14T08:43:19.037Z,3.47
2023-04-14T08:44:39.490Z,3.63
2023-04-14T08:46:00.812Z,3.35
2023-04-14T08:47:21.882Z,3.53
2023-04-14T08:48:42.379Z,3.42
2023-04-14T08:50:06.384Z,2.38
2023-04-14T08:51:31.192Z,2.20
2023-04-14T08:52:53.601Z,2.95
2023-04-14T08:54:15.724Z,2.78
2023-04-14T08:55:37.030Z,2.50
2023-04-14T08:56:57.966Z,2.78
2023-04-14T08:58:18.694Z,2.50
2023-04-14T08:59:39.535Z,2.55
2023-04-14T09:01:01.755Z,2.90
2023-04-14T09:02:22.548Z,2.78
2023-04-14T09:03:43.904Z,2.78
2023-04-14T09:05:06.979Z,2.90
2023-04-14T09:06:27.462Z,2.72
2023-04-14T09:07:48.409Z,2.60
2023-04-14T09:09:09.089Z,2.30
2023-04-14T09:10:30.064Z,2.45
2023-04-14T09:11:51.949Z,2.45
2023-04-14T09:13:13.161Z,2.33
2023-04-14T09:14:34.073Z,2.13
2023-04-14T09:15:54.955Z,2.45
2023-04-14T09:17:15.492Z,2.92
2023-04-14T09:18:36.672Z,2.42
2023-04-14T09:20:36.241Z,2.55
2023-04-14T09:21:53.330Z,2.42
2023-04-14T09:23:15.906Z,2.67
2023-04-14T09:24:36.669Z,2.22
2023-04-14T09:25:57.375Z,2.50
2023-04-14T09:27:18.097Z,2.38
2023-04-14T09:28:41.278Z,2.33
2023-04-14T09:30:02.805Z,2.15
2023-04-14T09:31:23.276Z,2.17
2023-04-14T09:34:15.714Z,2.15
2023-04-14T09:35:43.927Z,1.83
2023-04-14T09:37:06.970Z,1.70
2023-04-14T09:38:32.402Z,2.55
2023-04-14T09:39:53.687Z,1.95
2023-04-14T09:41:16.264Z,2.22
2023-04-14T09:42:40.422Z,2.30
2023-04-14T09:44:07.368Z,2.35
2023-04-14T09:45:41.188Z,2.47
2023-04-14T09:47:03.131Z,2.58
2023-04-14T09:48:23.719Z,1.90
2023-04-14T09:49:55.464Z,2.45
2023-04-14T09:52:39.313Z,2.50
2023-04-14T09:54:02.274Z,2.55
2023-04-14T09:55:23.072Z,2.78
2023-04-14T09:56:45.773Z,2.78
2023-04-14T09:58:10.021Z,2.92
2023-04-14T09:59:31.338Z,3.90
2023-04-14T10:02:12.331Z,3.90
2023-04-14T10:03:35.137Z,3.97
2023-04-14T10:05:03.947Z,3.70
2023-04-14T10:06:25.295Z,3.25
2023-04-14T10:07:47.679Z,3.63
2023-04-14T10:09:08.304Z,3.42
2023-04-14T10:10:28.967Z,3.38
2023-04-14T10:12:09.116Z,3.20
2023-04-14T10:13:30.636Z,3.92
2023-04-14T10:14:51.374Z,4.20
2023-04-14T10:16:12.147Z,3.50
2023-04-14T10:17:34.196Z,3.67
2023-04-14T10:18:55.708Z,5.00
2023-04-14T10:20:16.556Z,4.05
2023-04-14T10:21:37.409Z,3.63
2023-04-14T10:22:59.860Z,3.37
2023-04-14T10:24:20.652Z,3.50
2023-04-14T10:25:41.014Z,3.00
2023-04-14T10:27:02.373Z,3.03
2023-04-14T10:28:23.097Z,2.80
2023-04-14T10:29:43.819Z,2.90
2023-04-14T10:31:06.166Z,2.57
2023-04-14T10:32:35.390Z,2.97
2023-04-14T10:33:56.239Z,2.88
2023-04-14T10:35:17.663Z,2.83
2023-04-14T10:36:38.641Z,2.83
2023-04-14T10:38:00.918Z,2.50
2023-04-14T10:39:23.075Z,2.65
2023-04-14T10:40:45.968Z,2.78
2023-04-14T10:42:06.913Z,1.67
2023-04-14T10:43:28.178Z,2.53
2023-04-14T10:45:02.355Z,2.10
2023-04-14T10:46:23.090Z,2.20
2023-04-14T10:47:45.225Z,2.53
2023-04-14T10:50:26.392Z,1.98
2023-04-14T10:51:49.762Z,2.47
2023-04-14T10:53:11.903Z,2.50
2023-04-14T10:54:53.447Z,2.70
2023-04-14T10:56:14.630Z,1.98
2023-04-14T10:57:41.108Z,2.40
2023-04-14T10:59:02.955Z,2.60
2023-04-14T11:00:26.126Z,2.80
2023-04-14T11:01:54.375Z,2.42
2023-04-14T11:03:17.398Z,2.45
2023-04-14T11:04:58.337Z,2.58
2023-04-14T11:06:48.320Z,1.83
2023-04-14T11:08:14.754Z,2.20
2023-04-14T11:09:35.553Z,2.72
2023-04-14T11:11:01.430Z,2.28
2023-04-14T11:12:25.851Z,2.42
2023-04-14T11:14:12.528Z,2.83
2023-04-14T11:15:52.100Z,2.33
2023-04-14T11:17:19.923Z,2.70
2023-04-14T11:18:42.702Z,3.25
2023-04-14T11:20:14.281Z,2.95
2023-04-14T11:21:48.508Z,2.78
2023-04-14T11:23:09.208Z,2.10
2023-04-14T11:24:31.702Z,2.30
2023-04-14T11:25:52.473Z,2.30
2023-04-14T11:27:13.439Z,2.28
2023-04-14T11:28:35.452Z,2.43
2023-04-14T11:29:56.141Z,2.38
2023-04-14T11:31:16.964Z,2.58
2023-04-14T11:32:46.193Z,2.55
2023-04-14T11:34:06.558Z,2.55
2023-04-14T11:35:28.312Z,2.25
2023-04-14T11:36:49.585Z,2.40
2023-04-14T11:38:11.323Z,2.33
2023-04-14T11:39:33.403Z,3.22
2023-04-14T11:40:54.562Z,2.60
2023-04-14T11:42:15.480Z,2.50
2023-04-14T11:43:37.664Z,2.22
2023-04-14T11:44:58.592Z,2.95
2023-04-14T11:46:20.089Z,2.83
2023-04-14T11:47:40.776Z,2.45
2023-04-14T11:49:01.452Z,2.17
2023-04-14T11:50:22.567Z,2.30
2023-04-14T11:51:43.000Z,2.45
2023-04-14T11:53:07.558Z,2.50
2023-04-14T11:54:36.422Z,2.38
2023-04-14T11:55:56.965Z,2.72
2023-04-14T11:57:18.300Z,2.28
2023-04-14T11:58:39.196Z,2.38
2023-04-14T11:59:59.753Z,2.08
2023-04-14T12:01:22.674Z,2.40
2023-04-14T12:02:43.929Z,2.53
2023-04-14T12:05:26.072Z,2.20
2023-04-14T12:06:46.471Z,2.42
2023-04-14T12:08:08.232Z,1.98
2023-04-14T12:09:29.480Z,2.38
2023-04-14T12:10:51.765Z,1.75
2023-04-14T12:12:14.506Z,2.25
2023-04-14T12:13:40.308Z,2.75
2023-04-14T12:15:01.906Z,2.08
2023-04-14T12:16:23.811Z,1.98
2023-04-14T12:17:44.765Z,2.22
2023-04-14T12:19:05.534Z,2.13
2023-04-14T12:20:26.664Z,2.00
2023-04-14T12:21:51.477Z,2.35
2023-04-14T12:23:12.425Z,1.75
2023-04-14T12:24:36.712Z,2.17
2023-04-14T12:25:58.744Z,1.95
2023-04-14T12:27:19.980Z,1.95
2023-04-14T12:28:40.967Z,1.60
2023-04-14T12:30:01.560Z,1.98
2023-04-14T12:31:27.060Z,2.47
2023-04-14T12:32:47.666Z,2.17
2023-04-14T12:34:08.244Z,2.72
2023-04-14T12:35:34.053Z,2.30
2023-04-14T12:36:54.976Z,1.83
2023-04-14T12:38:15.603Z,2.22
2023-04-14T12:39:49.960Z,2.10
2023-04-14T12:41:21.816Z,1.40
2023-04-14T12:44:14.449Z,1.48
2023-04-14T12:45:41.955Z,1.73
2023-04-14T12:47:02.628Z,1.48
2023-04-14T12:48:23.303Z,2.00
2023-04-14T12:49:44.274Z,1.70
2023-04-14T12:51:09.434Z,1.92
2023-04-14T12:52:35.431Z,1.48
2023-04-14T12:54:06.651Z,1.52
2023-04-14T12:55:28.599Z,1.50
2023-04-14T12:56:50.567Z,1.70
2023-04-14T12:58:11.110Z,1.67
2023-04-14T12:59:32.121Z,1.73
2023-04-14T13:00:52.611Z,1.60
2023-04-14T13:02:19.763Z,1.75
2023-04-14T13:03:42.464Z,1.92
2023-04-14T13:05:03.654Z,1.90
2023-04-14T13:06:25.241Z,2.00
2023-04-14T13:07:45.784Z,1.60
2023-04-14T13:09:06.679Z,1.20
2023-04-14T13:10:30.305Z,1.60
2023-04-14T13:11:52.572Z,1.33
2023-04-14T13:13:13.603Z,2.08
2023-04-14T13:14:34.165Z,2.15
2023-04-14T13:16:13.826Z,1.47
2023-04-14T13:17:36.097Z,1.60
2023-04-14T13:18:57.141Z,1.80
2023-04-14T13:20:17.982Z,1.70
2023-04-14T13:21:38.312Z,1.83
2023-04-14T13:22:59.228Z,1.70
2023-04-14T13:24:20.014Z,1.80
2023-04-14T13:25:40.915Z,1.90
2023-04-14T13:27:03.556Z,2.13
2023-04-14T13:28:24.647Z,2.10
2023-04-14T13:29:45.708Z,2.35
2023-04-14T13:31:06.430Z,2.10
2023-04-14T13:32:27.130Z,1.77
2023-04-14T13:33:47.774Z,2.20
2023-04-14T13:35:08.795Z,2.05
2023-04-14T13:36:29.369Z,1.73
2023-04-14T13:37:50.498Z,1.33
2023-04-14T13:39:11.283Z,1.88
2023-04-14T13:40:31.925Z,1.77
2023-04-14T13:41:52.758Z,1.85
2023-04-14T13:43:17.660Z,2.20
2023-04-14T13:44:38.632Z,2.38
2023-04-14T13:45:59.911Z,2.15
2023-04-14T13:47:20.644Z,2.28
2023-04-14T13:48:43.315Z,2.00
2023-04-14T13:50:04.497Z,2.33
2023-04-14T13:51:26.751Z,2.10
2023-04-14T13:52:47.601Z,2.20
2023-04-14T13:54:08.438Z,2.58
2023-04-14T13:55:28.866Z,2.17
2023-04-14T13:56:49.633Z,1.98
2023-04-14T13:58:10.363Z,2.00
2023-04-14T13:59:32.258Z,2.03
2023-04-14T14:00:53.140Z,1.95
2023-04-14T14:02:13.843Z,2.10
2023-04-14T14:03:34.717Z,1.90
2023-04-14T14:04:55.200Z,1.67
2023-04-14T14:06:16.068Z,1.95
2023-04-14T14:07:37.708Z,2.22
2023-04-14T14:09:04.163Z,2.00
2023-04-14T14:10:25.999Z,2.10
2023-04-14T14:11:46.682Z,1.60
2023-04-14T14:13:07.381Z,2.40
2023-04-14T14:14:28.022Z,2.28
2023-04-14T14:15:50.190Z,2.17
2023-04-14T14:17:11.107Z,2.00
2023-04-14T14:18:31.855Z,1.65
2023-04-14T14:19:52.503Z,1.87
2023-04-14T14:21:13.310Z,2.00
2023-04-14T14:22:33.939Z,1.90
2023-04-14T14:23:54.700Z,2.00
2023-04-14T14:25:19.340Z,1.90
2023-04-14T14:26:40.746Z,2.20
2023-04-14T14:28:01.560Z,1.83
2023-04-14T14:29:22.409Z,1.90
2023-04-14T14:30:43.249Z,1.40
2023-04-14T14:32:05.635Z,2.03
2023-04-14T14:33:25.904Z,2.22
2023-04-14T14:34:47.034Z,2.08
2023-04-14T14:36:07.693Z,2.13
2023-04-14T14:37:28.650Z,1.90
2023-04-14T14:38:49.545Z,2.00
2023-04-14T14:40:11.075Z,2.10
2023-04-14T14:42:52.045Z,2.10
2023-04-14T14:44:12.854Z,2.38
2023-04-14T14:45:33.828Z,2.35
2023-04-14T14:46:55.137Z,1.98
2023-04-14T14:48:17.418Z,1.88
2023-04-14T14:49:46.115Z,1.80
2023-04-14T14:51:13.603Z,1.90
2023-04-14T14:52:34.506Z,2.33
2023-04-14T14:54:04.192Z,1.77
2023-04-14T14:55:29.961Z,1.92
2023-04-14T14:56:50.393Z,2.03
2023-04-14T14:58:11.233Z,2.70
2023-04-14T14:59:32.092Z,1.85
2023-04-14T15:00:53.186Z,2.20
2023-04-14T15:02:13.892Z,2.13
2023-04-14T15:03:36.331Z,2.28
2023-04-14T15:04:56.900Z,1.77
2023-04-14T15:06:17.893Z,1.85
2023-04-14T15:07:38.585Z,2.30
2023-04-14T15:08:59.695Z,2.30
2023-04-14T15:10:20.267Z,1.75
2023-04-14T15:11:40.983Z,2.05
2023-04-14T15:13:01.828Z,1.67
2023-04-14T15:14:22.564Z,1.70
2023-04-14T15:15:43.288Z,2.10
2023-04-14T15:17:04.183Z,1.90
2023-04-14T15:18:24.650Z,1.92
2023-04-14T15:19:47.028Z,2.08
2023-04-14T15:21:07.522Z,2.38
2023-04-14T15:22:28.265Z,2.35
2023-04-14T15:23:49.004Z,2.05
2023-04-14T15:25:10.079Z,2.00
2023-04-14T15:26:30.496Z,1.90
2023-04-14T15:27:51.496Z,2.03
2023-04-14T15:29:12.079Z,2.33
2023-04-14T15:30:32.728Z,1.80
2023-04-14T15:31:53.539Z,2.30
2023-04-14T15:33:14.545Z,1.63
2023-04-14T15:34:35.435Z,1.93
2023-04-14T15:35:57.393Z,1.98
2023-04-14T15:37:17.855Z,2.00
2023-04-14T15:38:38.658Z,1.42
2023-04-14T15:39:59.478Z,1.25
2023-04-14T15:41:20.323Z,1.63
2023-04-14T15:42:40.935Z,1.80
2023-04-14T15:44:01.697Z,1.85
2023-04-14T15:45:22.451Z,2.10
2023-04-14T15:46:43.017Z,1.40
2023-04-14T15:48:04.080Z,1.40
2023-04-14T15:49:24.707Z,1.45
2023-04-14T15:52:07.788Z,1.38
2023-04-14T15:53:28.447Z,1.73
2023-04-14T15:54:49.092Z,1.98
2023-04-14T15:56:09.728Z,2.42
2023-04-14T15:57:33.232Z,2.50
2023-04-14T15:58:53.732Z,2.40
2023-04-14T16:00:15.083Z,1.80
2023-04-14T16:01:35.397Z,1.98
2023-04-14T16:02:56.434Z,1.88
2023-04-14T16:04:17.064Z,1.53
2023-04-14T16:05:37.623Z,2.00
2023-04-14T16:06:58.171Z,2.47
2023-04-14T16:08:20.019Z,2.88
2023-04-14T16:09:40.852Z,5.38
2023-04-14T16:11:01.736Z,13.43
2023-04-14T16:12:23.376Z,12.93
2023-04-14T16:15:07.238Z,2.90
2023-04-14T16:16:28.175Z,3.05
2023-04-14T16:17:48.740Z,3.95
2023-04-14T16:19:09.513Z,6.30
2023-04-14T16:20:30.105Z,6.63
2023-04-14T16:21:50.702Z,4.50
2023-04-14T16:23:11.481Z,5.95
2023-04-14T16:24:33.636Z,5.30
2023-04-14T16:25:54.165Z,8.32
2023-04-14T16:27:14.936Z,9.82
2023-04-14T16:28:35.949Z,9.73
2023-04-14T16:31:17.885Z,4.15
2023-04-14T16:32:38.831Z,2.05
2023-04-14T16:33:59.532Z,2.63
2023-04-14T16:35:20.238Z,2.25
2023-04-14T16:36:41.030Z,2.28
2023-04-14T16:38:01.850Z,2.50
2023-04-14T16:39:22.678Z,2.05
2023-04-14T16:40:45.013Z,2.00
2023-04-14T16:42:06.856Z,1.80
2023-04-14T16:43:28.201Z,1.80
2023-04-14T16:44:49.212Z,2.00
2023-04-14T16:46:09.826Z,1.92
2023-04-14T16:47:30.773Z,2.05
2023-04-14T16:48:51.558Z,1.63
2023-04-14T16:50:12.195Z,1.83
2023-04-14T16:51:32.920Z,2.23
2023-04-14T16:52:54.007Z,2.20
2023-04-14T16:54:14.566Z,2.27
2023-04-14T16:55:35.122Z,2.22
2023-04-14T16:56:57.221Z,2.33
2023-04-14T16:58:17.761Z,2.42
2023-04-14T16:59:38.694Z,2.20
2023-04-14T17:00:59.432Z,2.35
2023-04-14T17:02:20.408Z,1.75
2023-04-14T17:03:41.141Z,2.20
2023-04-14T17:05:01.804Z,2.50
2023-04-14T17:06:22.466Z,2.13
2023-04-14T17:07:43.359Z,1.75
2023-04-14T17:09:04.087Z,2.13
2023-04-14T17:10:24.496Z,2.97
2023-04-14T17:11:45.250Z,2.20
2023-04-14T17:13:07.314Z,1.83
2023-04-14T17:14:27.798Z,1.88
2023-04-14T17:15:55.664Z,2.05
2023-04-14T17:17:19.339Z,2.22
2023-04-14T17:18:40.249Z,2.22
2023-04-14T17:20:00.728Z,2.08
2023-04-14T17:21:21.531Z,1.90
2023-04-14T17:22:42.830Z,2.70
2023-04-14T17:24:04.141Z,1.90
2023-04-14T17:26:45.194Z,2.40
2023-04-14T17:28:07.259Z,2.20
2023-04-14T17:29:28.026Z,2.15
2023-04-14T17:30:48.446Z,1.73
2023-04-14T17:32:09.138Z,2.83
2023-04-14T17:33:29.615Z,1.80
2023-04-14T17:34:51.095Z,2.15
2023-04-14T17:36:13.721Z,1.90
2023-04-14T17:37:34.921Z,2.30
2023-04-14T17:39:07.072Z,1.80
2023-04-14T17:40:27.708Z,1.70
2023-04-14T17:41:51.313Z,2.33
2023-04-14T17:43:14.063Z,2.25
2023-04-14T17:44:34.932Z,2.30
2023-04-14T17:45:55.547Z,1.95
2023-04-14T17:47:16.342Z,1.98
2023-04-14T17:48:36.988Z,2.13
2023-04-14T17:49:57.819Z,1.73
2023-04-14T17:51:18.729Z,2.70
2023-04-14T17:52:39.564Z,2.00
2023-04-14T17:54:00.600Z,2.10
2023-04-14T17:55:21.738Z,1.77
2023-04-14T17:56:42.701Z,2.40
2023-04-14T17:58:03.394Z,2.45
2023-04-14T17:59:25.576Z,2.03
2023-04-14T18:00:47.468Z,2.55
2023-04-14T18:02:08.246Z,2.63
2023-04-14T18:03:29.019Z,2.08
2023-04-14T18:04:49.908Z,2.15
2023-04-14T18:06:10.882Z,1.92
2023-04-14T18:07:31.593Z,1.90
2023-04-14T18:08:52.298Z,2.40
2023-04-14T18:10:12.954Z,2.20
2023-04-14T18:11:33.672Z,1.77
2023-04-14T18:12:57.400Z,1.77
2023-04-14T18:14:17.631Z,2.10
2023-04-14T18:15:41.201Z,1.58
2023-04-14T18:17:01.883Z,2.03
2023-04-14T18:18:24.011Z,1.80
2023-04-14T18:19:46.313Z,1.83
2023-04-14T18:21:07.048Z,2.03
2023-04-14T18:22:27.948Z,2.05
2023-04-14T18:24:47.843Z,1.55
2023-04-14T18:26:26.489Z,1.80
2023-04-14T18:28:36.006Z,1.75
2023-04-14T18:29:56.534Z,1.80
2023-04-14T18:31:18.914Z,1.90
2023-04-14T18:32:39.906Z,1.80
2023-04-14T18:34:05.405Z,2.00
2023-04-14T18:35:25.991Z,2.08
2023-04-14T18:36:46.894Z,2.03
2023-04-14T18:38:07.396Z,2.43
2023-04-14T18:39:28.275Z,2.80